Time;durP1;ratioP1;P1;durP2;ratioP2;P2;SDS_P1;SDS_P2;PMS_P1;PMS_P2;Temp;Humidity;BMP_temperature;BMP_pressure;BME280_temperature;BME280_humidity;BME280_pressure;Samples;Min_cycle;Max_cycle;Signal;HPM_P1;HPM_P2
2021/08/05 00:01:50;;;;;;;16.13;9.98;;;614.50;2432.00;;;;;;5020072;28;20025;-71
2021/08/05 00:04:16;;;;;;;22.02;10.27;;;614.50;2432.00;;;;;;5006094;28;20077;-72
2021/08/05 00:06:42;;;;;;;24.83;11.45;;;614.50;2432.00;;;;;;5046614;28;20057;-71
2021/08/05 00:09:08;;;;;;;26.58;10.82;;;614.50;2432.00;;;;;;5017672;28;20025;-71
2021/08/05 00:11:33;;;;;;;25.77;11.63;;;614.50;2432.00;;;;;;5027702;28;20551;-72
2021/08/05 00:13:59;;;;;;;17.17;10.05;;;614.50;2432.00;;;;;;5016266;28;20025;-72
2021/08/05 00:16:25;;;;;;;16.65;8.45;;;614.50;2432.00;;;;;;5017307;28;20447;-72
2021/08/05 00:18:51;;;;;;;13.15;8.32;;;614.40;2432.00;;;;;;5029307;28;20043;-72
2021/08/05 00:21:20;;;;;;;11.60;6.90;;;614.50;2432.00;;;;;;5044288;28;20113;-72
2021/08/05 00:23:47;;;;;;;9.40;8.02;;;589.70;2432.00;;;;;;5012058;28;20485;-73
2021/08/05 00:26:13;;;;;;;9.38;6.90;;;589.70;2432.00;;;;;;5018121;28;20041;-72
2021/08/05 00:28:39;;;;;;;10.13;7.35;;;589.70;2432.00;;;;;;5017174;28;20034;-72
2021/08/05 00:31:05;;;;;;;12.20;6.78;;;589.70;2432.00;;;;;;5017861;28;20554;-72
2021/08/05 00:33:31;;;;;;;11.98;7.22;;;614.40;2432.00;;;;;;5005610;28;20038;-73
2021/08/05 00:35:57;;;;;;;11.60;7.30;;;614.40;2432.00;;;;;;5018647;28;20113;-73
2021/08/05 00:38:23;;;;;;;11.07;6.18;;;614.50;2432.00;;;;;;5012167;28;20050;-74
2021/08/05 00:40:49;;;;;;;8.63;6.45;;;614.50;2432.00;;;;;;5013017;28;20079;-73
2021/08/05 00:43:15;;;;;;;10.70;6.82;;;614.80;2432.00;;;;;;5022054;28;20517;-73
2021/08/05 00:45:40;;;;;;;11.13;6.43;;;614.90;2432.00;;;;;;5026903;28;20021;-73
2021/08/05 00:48:06;;;;;;;10.27;6.97;;;614.90;2406.40;;;;;;5012828;28;20092;-72
2021/08/05 00:50:33;;;;;;;11.43;6.88;;;614.80;2432.00;;;;;;5014792;28;20025;-73
2021/08/05 00:52:59;;;;;;;9.18;6.57;;;614.70;2432.00;;;;;;5014181;28;20025;-73
2021/08/05 00:55:26;;;;;;;9.98;6.18;;;614.70;2432.00;;;;;;5016389;28;20018;-73
2021/08/05 00:57:51;;;;;;;9.82;6.95;;;614.90;2432.00;;;;;;5003004;28;20489;-72
2021/08/05 01:00:17;;;;;;;11.60;6.53;;;614.90;2406.40;;;;;;5020719;28;20044;-73
2021/08/05 01:02:50;;;;;;;12.38;6.63;;;614.70;2406.40;;;;;;5019582;28;20030;-72
2021/08/05 01:05:19;;;;;;;9.65;5.78;;;614.70;2432.00;;;;;;5012883;28;20049;-72
2021/08/05 01:07:57;;;;;;;10.85;5.75;;;614.80;2432.00;;;;;;5012626;28;20029;-72
2021/08/05 01:10:28;;;;;;;13.07;6.82;;;614.90;2406.40;;;;;;5026650;28;20125;-73
2021/08/05 01:13:09;;;;;;;9.43;5.88;;;615.00;2406.40;;;;;;5005661;28;20034;-73
2021/08/05 01:15:36;;;;;;;10.38;5.63;;;615.00;2406.40;;;;;;5006889;28;20109;-73
2021/08/05 01:18:14;;;;;;;9.00;5.47;;;614.80;2406.40;;;;;;5011050;28;20033;-73
2021/08/05 01:20:45;;;;;;;8.30;5.53;;;614.80;2406.40;;;;;;5009105;28;20380;-73
2021/08/05 01:23:48;;;;;;;5.93;4.72;;;614.50;2432.00;;;;;;5014361;28;20054;-73
2021/08/05 01:26:47;;;;;;;6.82;4.93;;;614.60;2432.00;;;;;;5010026;28;20026;-73
2021/08/05 01:29:13;;;;;;;9.15;5.28;;;614.80;2432.00;;;;;;5004764;28;20390;-72
2021/08/05 01:31:40;;;;;;;10.13;5.45;;;614.70;2432.00;;;;;;5006861;28;20480;-73
2021/08/05 01:34:06;;;;;;;6.18;5.20;;;614.70;2432.00;;;;;;5011709;28;20469;-73
2021/08/05 01:36:32;;;;;;;6.93;5.25;;;614.80;2432.00;;;;;;5014060;28;20033;-73
2021/08/05 01:38:59;;;;;;;7.93;4.95;;;614.80;2432.00;;;;;;5010397;28;20107;-73
2021/08/05 01:41:26;;;;;;;7.35;5.10;;;614.80;2432.00;;;;;;5008515;28;20054;-73
2021/08/05 01:43:52;;;;;;;7.60;5.47;;;614.80;2432.00;;;;;;5011190;28;20024;-73
2021/08/05 01:46:22;;;;;;;8.70;5.13;;;614.60;2432.00;;;;;;5009912;28;20120;-73
2021/08/05 01:48:50;;;;;;;8.18;5.05;;;614.70;2432.00;;;;;;5013282;28;20030;-73
2021/08/05 01:51:19;;;;;;;6.40;4.78;;;614.50;2432.00;;;;;;5014682;28;20045;-74
2021/08/05 01:53:46;;;;;;;7.07;4.90;;;614.40;2432.00;;;;;;5013277;28;20109;-73
2021/08/05 01:56:12;;;;;;;7.10;5.35;;;614.40;2432.00;;;;;;5015204;28;20030;-73
2021/08/05 01:58:38;;;;;;;7.43;5.95;;;614.40;2432.00;;;;;;5015136;28;20030;-73
2021/08/05 02:01:03;;;;;;;8.43;5.38;;;614.40;2432.00;;;;;;5013412;28;20028;-73
2021/08/05 02:03:29;;;;;;;9.52;5.07;;;614.40;2432.00;;;;;;5013993;28;20092;-73
2021/08/05 02:06:13;;;;;;;7.40;5.93;;;614.40;2432.00;;;;;;5014101;28;20088;-73
2021/08/05 02:09:00;;;;;;;10.00;4.88;;;614.40;2432.00;;;;;;5012634;28;20022;-72
2021/08/05 02:11:33;;;;;;;7.85;4.78;;;589.70;2432.00;;;;;;5011819;28;20606;-73
2021/08/05 02:14:01;;;;;;;7.03;5.78;;;589.50;2432.00;;;;;;5025375;28;20030;-73
2021/08/05 02:16:29;;;;;;;7.03;5.20;;;589.50;2432.00;;;;;;5015134;28;20026;-73
2021/08/05 02:18:56;;;;;;;7.53;5.03;;;589.50;2432.00;;;;;;5008426;28;20018;-72
2021/08/05 02:21:24;;;;;;;9.27;5.43;;;589.50;2432.00;;;;;;5009108;28;20026;-72
2021/08/05 02:23:55;;;;;;;7.35;5.10;;;589.50;2432.00;;;;;;5005343;28;20476;-72
2021/08/05 02:26:21;;;;;;;7.22;5.07;;;589.30;2432.00;;;;;;5013243;28;20522;-74
2021/08/05 02:28:48;;;;;;;7.75;5.25;;;589.30;2432.00;;;;;;5014691;28;20018;-73
2021/08/05 02:31:14;;;;;;;10.45;5.57;;;589.10;2432.00;;;;;;5013689;28;20469;-73
2021/08/05 02:33:41;;;;;;;7.95;5.70;;;589.00;2432.00;;;;;;5014180;28;20058;-73
2021/08/05 02:36:06;;;;;;;7.65;5.20;;;589.00;2432.00;;;;;;5014825;28;20380;-73
2021/08/05 02:38:33;;;;;;;9.10;5.72;;;588.80;2432.00;;;;;;5013431;28;20492;-73
2021/08/05 02:41:00;;;;;;;10.25;6.10;;;564.10;2432.00;;;;;;5012497;28;20492;-73
2021/08/05 02:43:28;;;;;;;9.18;5.30;;;564.00;2432.00;;;;;;5023012;28;20036;-73
2021/08/05 02:45:55;;;;;;;8.05;4.88;;;563.90;2432.00;;;;;;5008204;28;20029;-73
2021/08/05 02:48:22;;;;;;;6.85;5.90;;;564.00;2432.00;;;;;;5018948;28;20091;-73
2021/08/05 02:50:49;;;;;;;10.88;5.63;;;564.00;2432.00;;;;;;5009378;28;20034;-73
2021/08/05 02:53:15;;;;;;;8.57;5.78;;;564.00;2432.00;;;;;;5006870;28;20022;-73
2021/08/05 02:55:44;;;;;;;7.28;5.40;;;564.00;2432.00;;;;;;5017337;28;20172;-73
2021/08/05 02:58:11;;;;;;;6.18;5.38;;;564.00;2432.00;;;;;;5006913;28;20477;-74
2021/08/05 03:00:37;;;;;;;11.55;5.70;;;564.00;2432.00;;;;;;5006763;28;20441;-74
2021/08/05 03:03:04;;;;;;;9.73;7.60;;;564.00;2432.00;;;;;;5006670;28;20045;-73
2021/08/05 03:05:30;;;;;;;8.90;5.25;;;564.00;2432.00;;;;;;5010502;28;20037;-73
2021/08/05 03:07:56;;;;;;;8.82;5.25;;;563.90;2432.00;;;;;;5017142;28;20464;-73
2021/08/05 03:10:21;;;;;;;8.23;6.65;;;563.90;2432.00;;;;;;5012971;28;20081;-73
2021/08/05 03:12:47;;;;;;;8.55;6.03;;;563.90;2432.00;;;;;;5013089;28;20053;-73
2021/08/05 03:15:13;;;;;;;10.30;5.70;;;563.90;2432.00;;;;;;5010748;28;20022;-73
2021/08/05 03:17:39;;;;;;;10.20;6.63;;;563.90;2432.00;;;;;;5012128;28;20029;-73
2021/08/05 03:20:06;;;;;;;12.90;6.45;;;563.80;2432.00;;;;;;5004657;28;20358;-74
2021/08/05 03:22:32;;;;;;;8.85;5.75;;;563.80;2432.00;;;;;;5013374;28;20388;-74
2021/08/05 03:24:59;;;;;;;9.13;6.15;;;563.80;2432.00;;;;;;5011967;28;20121;-74
2021/08/05 03:27:25;;;;;;;8.13;6.10;;;563.80;2432.00;;;;;;5013186;28;20499;-74
2021/08/05 03:29:50;;;;;;;10.35;6.82;;;563.80;2432.00;;;;;;5008866;28;20030;-73
2021/08/05 03:32:16;;;;;;;7.72;6.55;;;564.00;2432.00;;;;;;5013531;28;20081;-73
2021/08/05 03:34:42;;;;;;;8.27;5.75;;;563.80;2432.00;;;;;;5015502;28;20515;-73
2021/08/05 03:37:07;;;;;;;11.05;5.90;;;563.70;2432.00;;;;;;5015333;28;20056;-74
2021/08/05 03:39:33;;;;;;;11.57;6.63;;;563.70;2432.00;;;;;;5008521;28;20084;-73
2021/08/05 03:42:00;;;;;;;10.35;6.22;;;563.70;2432.00;;;;;;4998453;28;20031;-74
2021/08/05 03:44:26;;;;;;;9.63;6.13;;;563.80;2432.00;;;;;;5024423;28;20029;-73
2021/08/05 03:46:51;;;;;;;9.90;6.13;;;563.80;2432.00;;;;;;5012803;28;20157;-73
2021/08/05 03:49:17;;;;;;;9.35;6.55;;;563.80;2432.00;;;;;;5024629;28;20033;-74
2021/08/05 03:51:43;;;;;;;9.52;5.82;;;563.80;2432.00;;;;;;5012702;28;20025;-73
2021/08/05 03:54:08;;;;;;;7.68;5.10;;;563.80;2432.00;;;;;;5012927;28;20487;-73
2021/08/05 03:56:34;;;;;;;7.70;4.75;;;563.90;2432.00;;;;;;5012149;28;20033;-74
2021/08/05 03:59:01;;;;;;;12.10;4.95;;;564.10;2432.00;;;;;;5011673;28;20026;-73
2021/08/05 04:01:27;;;;;;;8.55;5.05;;;564.10;2432.00;;;;;;5020204;28;20050;-73
2021/08/05 04:03:53;;;;;;;10.35;5.32;;;564.10;2432.00;;;;;;5012742;28;20042;-73
2021/08/05 04:06:18;;;;;;;7.38;4.43;;;564.10;2432.00;;;;;;5013815;28;20042;-73
2021/08/05 04:08:44;;;;;;;11.57;5.03;;;588.80;2432.00;;;;;;5009936;28;20032;-73
2021/08/05 04:11:10;;;;;;;7.45;4.85;;;588.80;2432.00;;;;;;5006679;28;20472;-73
2021/08/05 04:13:36;;;;;;;9.65;4.57;;;588.90;2432.00;;;;;;5010916;28;20018;-73
2021/08/05 04:16:02;;;;;;;7.25;4.68;;;588.90;2432.00;;;;;;5018026;28;20025;-73
2021/08/05 04:18:28;;;;;;;8.65;4.85;;;588.90;2432.00;;;;;;5016738;28;20532;-73
2021/08/05 04:20:53;;;;;;;8.88;4.90;;;589.00;2432.00;;;;;;5017658;28;20057;-73
2021/08/05 04:23:19;;;;;;;6.22;4.45;;;589.10;2432.00;;;;;;5009906;28;20707;-73
2021/08/05 04:25:45;;;;;;;10.77;5.10;;;589.40;2432.00;;;;;;5004260;28;20026;-73
2021/08/05 04:28:11;;;;;;;7.38;4.57;;;589.40;2432.00;;;;;;5008296;28;20117;-73
2021/08/05 04:30:37;;;;;;;6.55;4.32;;;589.50;2432.00;;;;;;5012703;28;20484;-73
2021/08/05 04:33:03;;;;;;;6.60;4.18;;;589.70;2432.00;;;;;;5011573;28;20057;-73
2021/08/05 04:35:29;;;;;;;12.63;4.63;;;614.40;2432.00;;;;;;5011317;28;20034;-73
2021/08/05 04:37:59;;;;;;;10.00;4.75;;;614.50;2432.00;;;;;;5012136;28;20416;-73
2021/08/05 04:40:27;;;;;;;10.57;4.15;;;614.60;2432.00;;;;;;5011602;28;20030;-73
2021/08/05 04:42:53;;;;;;;8.52;4.63;;;614.80;2432.00;;;;;;5009633;28;20064;-73
2021/08/05 04:45:20;;;;;;;9.27;4.82;;;614.90;2406.40;;;;;;5009295;28;20501;-73
2021/08/05 04:47:54;;;;;;;7.13;4.80;;;615.00;2406.40;;;;;;5010776;28;20057;-73
2021/08/05 04:50:21;;;;;;;8.85;4.80;;;615.20;2380.80;;;;;;5012556;28;20113;-73
2021/08/05 04:52:47;;;;;;;6.55;4.82;;;615.20;2380.80;;;;;;5003937;28;20037;-73
2021/08/05 04:55:13;;;;;;;10.35;5.22;;;615.30;2380.80;;;;;;5012175;28;20014;-73
2021/08/05 04:57:58;;;;;;;7.45;4.50;;;640.00;2355.20;;;;;;5021977;28;20030;-73
2021/08/05 05:00:26;;;;;;;8.68;4.82;;;640.00;2380.80;;;;;;5013071;28;20087;-73
2021/08/05 05:02:53;;;;;;;7.18;5.30;;;640.20;2355.20;;;;;;5003732;28;20105;-73
2021/08/05 05:05:20;;;;;;;9.30;5.70;;;640.30;2329.60;;;;;;5013882;28;20042;-73
2021/08/05 05:07:46;;;;;;;11.48;5.68;;;640.50;2329.60;;;;;;5004128;28;20031;-73
2021/08/05 05:10:13;;;;;;;10.93;5.38;;;640.60;2304.00;;;;;;5004333;28;20018;-73
2021/08/05 05:12:39;;;;;;;8.48;5.03;;;640.90;2304.00;;;;;;5006408;28;20048;-73
2021/08/05 05:15:07;;;;;;;10.18;5.30;;;665.70;2304.00;;;;;;5004401;28;20018;-73
2021/08/05 05:17:33;;;;;;;9.50;5.55;;;665.90;2278.40;;;;;;5012042;28;20128;-73
2021/08/05 05:19:59;;;;;;;9.35;6.03;;;666.20;2252.80;;;;;;5025581;28;20053;-73
2021/08/05 05:22:25;;;;;;;10.77;6.30;;;666.40;2252.80;;;;;;5003383;28;20068;-73
2021/08/05 05:24:50;;;;;;;8.93;5.53;;;666.50;2252.80;;;;;;5002600;28;20034;-73
2021/08/05 05:27:16;;;;;;;7.57;5.57;;;691.40;2227.20;;;;;;5001550;28;20484;-73
2021/08/05 05:29:42;;;;;;;8.07;5.22;;;691.40;2201.60;;;;;;5009969;28;20539;-73
2021/08/05 05:32:08;;;;;;;8.30;5.80;;;691.60;2201.60;;;;;;5010400;28;20026;-73
2021/08/05 05:34:34;;;;;;;15.10;6.57;;;691.90;2176.00;;;;;;5009841;28;20097;-73
2021/08/05 05:37:00;;;;;;;8.93;5.90;;;692.00;2150.40;;;;;;5005945;28;20061;-73
2021/08/05 05:39:26;;;;;;;8.05;5.47;;;716.90;2176.00;;;;;;5008237;28;20570;-73
2021/08/05 05:41:52;;;;;;;10.82;6.80;;;716.90;2176.00;;;;;;5007149;28;20029;-73
2021/08/05 05:44:17;;;;;;;16.98;6.55;;;717.00;2150.40;;;;;;4998478;28;20053;-73
2021/08/05 05:46:44;;;;;;;15.18;7.00;;;717.00;2124.80;;;;;;5002797;28;20022;-74
2021/08/05 05:49:09;;;;;;;25.77;7.18;;;717.00;2124.80;;;;;;5002896;28;20031;-73
2021/08/05 05:51:35;;;;;;;19.15;5.60;;;717.20;2099.20;;;;;;5009378;28;20014;-75
2021/08/05 05:54:01;;;;;;;22.92;6.72;;;717.10;2099.20;;;;;;5010236;28;20101;-75
2021/08/05 05:56:26;;;;;;;15.88;6.80;;;717.20;2073.60;;;;;;5004110;28;20038;-76
2021/08/05 05:58:52;;;;;;;19.30;5.93;;;717.30;2073.60;;;;;;5007983;28;20717;-75
2021/08/05 06:01:18;;;;;;;21.92;7.57;;;717.40;2073.60;;;;;;4994651;28;20030;-76
2021/08/05 06:03:44;;;;;;;16.45;6.15;;;717.50;2073.60;;;;;;5008347;28;20117;-75
2021/08/05 06:06:10;;;;;;;17.00;5.80;;;717.70;2048.00;;;;;;5016816;28;20492;-74
2021/08/05 06:08:36;;;;;;;16.27;6.03;;;717.60;2048.00;;;;;;5009403;28;20066;-75
2021/08/05 06:11:01;;;;;;;14.88;6.13;;;717.50;2022.40;;;;;;5009724;28;20057;-76
2021/08/05 06:13:27;;;;;;;18.67;5.93;;;717.50;2022.40;;;;;;5011160;28;20021;-75
2021/08/05 06:15:53;;;;;;;11.70;5.88;;;717.50;2022.40;;;;;;5011107;28;20022;-75
2021/08/05 06:18:19;;;;;;;14.75;5.68;;;717.40;2022.40;;;;;;5010194;28;20038;-75
2021/08/05 06:20:44;;;;;;;17.20;5.35;;;717.50;2022.40;;;;;;5009733;28;20084;-75
2021/08/05 06:23:10;;;;;;;12.77;6.28;;;717.70;1996.80;;;;;;5009149;28;20097;-75
2021/08/05 06:25:36;;;;;;;15.50;5.85;;;742.40;2022.40;;;;;;5013071;28;20034;-74
2021/08/05 06:28:03;;;;;;;13.77;6.43;;;742.60;1996.80;;;;;;5010406;28;20034;-74
2021/08/05 06:30:30;;;;;;;12.80;5.80;;;742.70;1996.80;;;;;;5012322;28;20034;-75
2021/08/05 06:32:56;;;;;;;13.68;5.10;;;743.00;1996.80;;;;;;5011105;28;20109;-75
2021/08/05 06:35:22;;;;;;;14.68;6.63;;;743.10;1996.80;;;;;;5016408;28;20034;-75
2021/08/05 06:37:48;;;;;;;15.85;6.28;;;742.90;1971.20;;;;;;5013778;28;20030;-75
2021/08/05 06:40:14;;;;;;;18.92;7.25;;;742.90;1971.20;;;;;;5012351;28;20053;-75
2021/08/05 06:42:40;;;;;;;13.63;5.05;;;742.70;1996.80;;;;;;5011178;28;20480;-75
2021/08/05 06:45:08;;;;;;;16.65;6.05;;;742.60;1996.80;;;;;;5011980;28;20034;-75
2021/08/05 06:47:38;;;;;;;10.50;5.30;;;742.60;1996.80;;;;;;5021528;28;20025;-75
2021/08/05 06:50:03;;;;;;;10.35;5.28;;;742.60;1996.80;;;;;;5013716;28;20031;-76
2021/08/05 06:52:29;;;;;;;11.52;6.97;;;742.90;1971.20;;;;;;5013905;28;20595;-76
2021/08/05 06:54:55;;;;;;;11.98;4.85;;;743.10;1945.60;;;;;;5009606;28;20029;-75
2021/08/05 06:57:21;;;;;;;12.75;5.18;;;743.20;1920.00;;;;;;5053121;28;20526;-75
2021/08/05 06:59:46;;;;;;;11.55;7.50;;;768.10;1920.00;;;;;;5027962;28;20034;-75
2021/08/05 07:02:12;;;;;;;11.40;5.53;;;768.40;1894.40;;;;;;5014622;28;20033;-75
2021/08/05 07:04:38;;;;;;;30.40;6.80;;;768.30;1868.80;;;;;;5018708;28;20136;-76
2021/08/05 07:07:04;;;;;;;16.73;7.53;;;768.20;1868.80;;;;;;5003093;28;20026;-76
2021/08/05 07:09:29;;;;;;;25.88;7.68;;;768.50;1868.80;;;;;;5015516;28;20026;-76
2021/08/05 07:11:55;;;;;;;20.48;6.53;;;768.70;1843.20;;;;;;5011763;28;20049;-76
2021/08/05 07:14:21;;;;;;;24.65;7.03;;;768.80;1817.60;;;;;;5009497;28;20034;-76
2021/08/05 07:16:46;;;;;;;25.77;6.57;;;793.60;1817.60;;;;;;5012029;28;20037;-76
2021/08/05 07:19:12;;;;;;;18.10;6.07;;;793.80;1817.60;;;;;;5023440;28;20442;-76
2021/08/05 07:21:38;;;;;;;25.50;6.50;;;793.80;1792.00;;;;;;5011181;28;20030;-75
2021/08/05 07:24:04;;;;;;;21.02;7.63;;;794.10;1792.00;;;;;;5017243;28;20477;-76
2021/08/05 07:26:29;;;;;;;15.13;6.50;;;794.20;1766.40;;;;;;5003936;28;20029;-76
2021/08/05 07:28:55;;;;;;;27.58;8.45;;;794.20;1766.40;;;;;;5012542;28;20105;-76
2021/08/05 07:31:21;;;;;;;21.77;7.20;;;794.30;1740.80;;;;;;5014129;28;20049;-76
2021/08/05 07:33:49;;;;;;;11.80;5.40;;;819.20;1715.20;;;;;;5016635;28;20033;-77
2021/08/05 07:36:16;;;;;;;26.90;6.72;;;819.40;1715.20;;;;;;5012492;28;20046;-77
2021/08/05 07:38:42;;;;;;;21.33;6.80;;;819.70;1689.60;;;;;;5013924;28;20022;-75
2021/08/05 07:41:09;;;;;;;24.55;6.63;;;819.60;1689.60;;;;;;5005070;28;20500;-76
2021/08/05 07:43:35;;;;;;;27.20;7.45;;;819.90;1664.00;;;;;;5004631;28;20036;-76
2021/08/05 07:46:00;;;;;;;22.73;7.35;;;844.80;1664.00;;;;;;5008189;28;20405;-76
2021/08/05 07:48:26;;;;;;;28.00;7.13;;;844.80;1664.00;;;;;;5004455;28;20033;-75
2021/08/05 07:50:52;;;;;;;23.13;8.05;;;845.00;1638.40;;;;;;5012673;28;20029;-77
2021/08/05 07:53:17;;;;;;;23.05;7.43;;;845.20;1612.80;;;;;;5012324;28;20026;-77
2021/08/05 07:55:43;;;;;;;25.75;7.88;;;845.30;1612.80;;;;;;5012242;28;20029;-76
2021/08/05 07:58:09;;;;;;;18.83;5.90;;;844.90;1638.40;;;;;;5011553;28;20021;-75
2021/08/05 08:00:35;;;;;;;21.50;7.18;;;819.80;1638.40;;;;;;5012391;28;20030;-75
2021/08/05 08:03:04;;;;;;;27.02;8.30;;;819.40;1740.80;;;;;;5012749;28;20044;-75
2021/08/05 08:05:30;;;;;;;17.50;6.38;;;794.30;1817.60;;;;;;5011212;28;20128;-76
2021/08/05 08:07:56;;;;;;;15.73;5.68;;;793.80;1792.00;;;;;;5012713;28;20500;-75
2021/08/05 08:10:22;;;;;;;12.75;5.65;;;793.60;1792.00;;;;;;5012085;28;20026;-75
2021/08/05 08:12:48;;;;;;;19.13;6.28;;;768.80;1766.40;;;;;;5012037;28;20014;-75
2021/08/05 08:15:14;;;;;;;15.07;7.45;;;768.70;1792.00;;;;;;5011662;28;20049;-76
2021/08/05 08:17:40;;;;;;;24.08;8.00;;;768.50;1843.20;;;;;;5008028;28;20109;-74
2021/08/05 08:20:08;;;;;;;21.17;8.30;;;743.10;1996.80;;;;;;5013873;28;20391;-74
2021/08/05 08:22:34;;;;;;;27.20;9.18;;;743.20;2022.40;;;;;;5015998;28;20033;-74
2021/08/05 08:25:00;;;;;;;23.20;7.38;;;743.10;2048.00;;;;;;5012042;28;20046;-73
2021/08/05 08:27:26;;;;;;;21.92;7.25;;;743.30;2048.00;;;;;;5010744;28;20030;-73
2021/08/05 08:29:52;;;;;;;29.83;10.18;;;768.20;2022.40;;;;;;5013025;28;20024;-73
2021/08/05 08:32:17;;;;;;;19.25;8.38;;;768.10;2048.00;;;;;;5011110;28;20100;-73
2021/08/05 08:34:43;;;;;;;15.60;6.00;;;768.20;2048.00;;;;;;5012831;28;20037;-73
2021/08/05 08:37:09;;;;;;;18.52;7.78;;;768.30;1996.80;;;;;;5011405;28;20034;-73
2021/08/05 08:39:35;;;;;;;18.00;7.80;;;768.50;1996.80;;;;;;5011768;28;20026;-73
2021/08/05 08:42:01;;;;;;;23.48;6.55;;;793.60;1996.80;;;;;;5012750;28;20049;-73
2021/08/05 08:44:27;;;;;;;15.07;6.93;;;794.10;1945.60;;;;;;5021130;28;20042;-73
2021/08/05 08:46:53;;;;;;;10.55;5.15;;;794.40;1894.40;;;;;;5005503;28;20876;-73
2021/08/05 08:49:26;;;;;;;11.98;5.93;;;794.30;1868.80;;;;;;5003397;28;20516;-73
2021/08/05 08:51:54;;;;;;;13.93;4.85;;;794.40;1894.40;;;;;;5011626;28;20501;-73
2021/08/05 08:54:22;;;;;;;17.05;6.68;;;794.20;1868.80;;;;;;5015995;28;20017;-74
2021/08/05 08:56:48;;;;;;;11.07;5.05;;;794.20;1894.40;;;;;;5017876;28;20021;-73
2021/08/05 08:59:17;;;;;;;13.50;4.95;;;794.00;1920.00;;;;;;5008821;28;20057;-73
2021/08/05 09:01:43;;;;;;;12.57;6.75;;;793.90;1920.00;;;;;;5004886;28;20492;-73
2021/08/05 09:04:09;;;;;;;9.82;5.18;;;794.30;1894.40;;;;;;5021935;28;20057;-73
2021/08/05 09:06:35;;;;;;;19.13;4.65;;;794.30;1894.40;;;;;;5011437;28;20044;-73
2021/08/05 09:09:04;;;;;;;9.20;4.00;;;794.00;1894.40;;;;;;5011845;28;20014;-74
2021/08/05 09:11:30;;;;;;;9.77;4.07;;;768.50;1894.40;;;;;;5010856;28;20022;-74
2021/08/05 09:13:56;;;;;;;7.97;3.33;;;768.50;1920.00;;;;;;5010440;28;20024;-75
2021/08/05 09:16:26;;;;;;;6.35;3.67;;;743.10;1971.20;;;;;;5019240;28;20033;-75
2021/08/05 09:18:52;;;;;;;8.73;4.47;;;743.00;1996.80;;;;;;5013476;28;20379;-75
2021/08/05 09:21:21;;;;;;;11.13;5.00;;;743.10;1996.80;;;;;;5016874;28;20528;-74
2021/08/05 09:23:47;;;;;;;10.35;4.13;;;743.20;2022.40;;;;;;5007953;28;20030;-74
2021/08/05 09:26:39;;;;;;;9.07;3.40;;;768.10;1996.80;;;;;;5006900;28;20097;-75
2021/08/05 09:29:07;;;;;;;8.32;4.40;;;768.20;1996.80;;;;;;5010562;28;20029;-75
2021/08/05 09:31:35;;;;;;;9.68;4.18;;;768.40;1996.80;;;;;;5003574;28;20062;-75
2021/08/05 09:34:07;;;;;;;18.13;4.72;;;768.30;1996.80;;;;;;5010580;28;20033;-75
2021/08/05 09:36:34;;;;;;;7.03;3.97;;;768.00;2022.40;;;;;;5013756;28;20384;-75
2021/08/05 09:39:00;;;;;;;9.45;4.88;;;742.70;2099.20;;;;;;5010911;28;20112;-75
2021/08/05 09:41:26;;;;;;;12.52;6.15;;;742.60;2124.80;;;;;;5010430;28;20038;-74
2021/08/05 09:44:01;;;;;;;11.82;6.35;;;717.70;2124.80;;;;;;5012473;28;20088;-75
2021/08/05 09:46:32;;;;;;;9.65;5.63;;;742.40;2150.40;;;;;;5009749;28;20026;-75
2021/08/05 09:48:58;;;;;;;8.23;6.20;;;742.40;2150.40;;;;;;5010368;28;20040;-74
2021/08/05 09:51:24;;;;;;;10.68;4.72;;;717.40;2201.60;;;;;;5010696;28;20018;-74
2021/08/05 09:53:59;;;;;;;8.80;5.18;;;692.10;2227.20;;;;;;5010643;28;20388;-74
2021/08/05 09:56:25;;;;;;;;;;;691.70;2278.40;;;;;;5012191;28;20014;-74
2021/08/05 09:58:51;;;;;;;7.50;4.25;;;666.30;2355.20;;;;;;5012317;28;19992;-74
2021/08/05 10:01:18;;;;;;;10.55;4.05;;;666.20;2432.00;;;;;;5011187;28;20030;-75
2021/08/05 10:03:44;;;;;;;9.93;4.75;;;665.80;2432.00;;;;;;5009862;28;20501;-75
2021/08/05 10:06:09;;;;;;;9.77;3.72;;;640.80;2432.00;;;;;;5010195;28;20485;-75
2021/08/05 10:08:40;;;;;;;6.60;4.55;;;640.20;2432.00;;;;;;5015149;28;20064;-75
2021/08/05 10:11:07;;;;;;;6.97;4.30;;;615.00;2432.00;;;;;;5015128;28;20481;-75
2021/08/05 10:13:35;;;;;;;10.93;4.82;;;614.50;2432.00;;;;;;5016563;28;20030;-75
2021/08/05 10:16:10;;;;;;;12.40;4.75;;;589.50;2432.00;;;;;;5014949;28;20033;-76
2021/08/05 10:18:38;;;;;;;8.98;4.38;;;589.40;2432.00;;;;;;5016340;28;20022;-75
2021/08/05 10:21:07;;;;;;;10.43;5.00;;;589.20;2432.00;;;;;;5014265;28;20040;-75
2021/08/05 10:23:36;;;;;;;12.23;5.85;;;589.60;2432.00;;;;;;5014680;28;20030;-75
2021/08/05 10:26:04;;;;;;;12.68;6.40;;;614.60;2432.00;;;;;;5017591;28;20098;-74
2021/08/05 10:28:31;;;;;;;8.80;5.45;;;614.90;2432.00;;;;;;5012866;28;20108;-75
2021/08/05 10:30:59;;;;;;;10.98;5.30;;;615.10;2432.00;;;;;;5014274;28;20487;-76
2021/08/05 10:33:25;;;;;;;10.65;6.15;;;615.20;2432.00;;;;;;5010279;28;20030;-76
2021/08/05 10:35:52;;;;;;;11.60;7.75;;;615.10;2432.00;;;;;;5014520;28;20025;-76
2021/08/05 10:38:21;;;;;;;10.20;5.72;;;615.10;2432.00;;;;;;5011396;28;20029;-76
2021/08/05 10:40:49;;;;;;;11.75;5.97;;;615.20;2432.00;;;;;;5014051;28;20046;-75
2021/08/05 10:43:15;;;;;;;10.68;5.60;;;615.20;2432.00;;;;;;5010369;28;20025;-76
2021/08/05 10:45:41;;;;;;;10.30;5.72;;;615.00;2432.00;;;;;;5013273;28;20025;-76
2021/08/05 10:48:09;;;;;;;14.73;6.10;;;614.80;2432.00;;;;;;5014851;28;20080;-76
2021/08/05 10:50:45;;;;;;;17.45;11.20;;;614.80;2432.00;;;;;;5012528;28;20013;-76
2021/08/05 10:53:30;;;;;;;;;;;614.70;2432.00;;;;;;5014634;28;20018;-76
2021/08/05 10:56:19;;;;;;;15.85;7.38;;;614.50;2432.00;;;;;;5012065;28;20000;-76
2021/08/05 10:59:04;;;;;;;16.05;8.25;;;589.70;2432.00;;;;;;5010634;28;20029;-76
2021/08/05 11:01:50;;;;;;;12.15;7.38;;;614.40;2432.00;;;;;;5013628;28;20388;-76
2021/08/05 11:04:34;;;;;;;25.08;11.32;;;589.70;2432.00;;;;;;5013527;28;20060;-76
2021/08/05 11:07:33;;;;;;;16.85;10.30;;;589.50;2432.00;;;;;;5014230;28;20116;-76
2021/08/05 11:10:14;;;;;;;16.92;10.80;;;589.30;2432.00;;;;;;5015856;28;20387;-78
2021/08/05 11:12:51;;;;;;;10.18;6.60;;;589.10;2432.00;;;;;;5014043;28;20013;-76
2021/08/05 11:15:21;;;;;;;17.65;8.38;;;589.00;2432.00;;;;;;5007777;28;20096;-76
2021/08/05 11:18:18;;;;;;;10.55;7.50;;;588.80;2432.00;;;;;;5012850;28;20018;-79
2021/08/05 11:20:56;;;;;;;10.25;6.32;;;564.10;2432.00;;;;;;5015002;28;20083;-77
2021/08/05 11:23:25;;;;;;;10.32;6.25;;;564.10;2432.00;;;;;;5010827;28;20090;-77
2021/08/05 11:25:51;;;;;;;10.88;4.90;;;564.10;2432.00;;;;;;5026484;28;20017;-77
2021/08/05 11:28:26;;;;;;;9.00;5.60;;;564.00;2432.00;;;;;;5011840;28;20036;-76
2021/08/05 11:30:59;;;;;;;8.52;5.13;;;564.00;2432.00;;;;;;5039186;28;20417;-78
2021/08/05 11:33:40;;;;;;;7.88;5.47;;;564.00;2432.00;;;;;;5013982;28;20034;-80
2021/08/05 11:36:20;;;;;;;10.85;5.15;;;564.00;2432.00;;;;;;5013571;28;20046;-77
2021/08/05 11:39:00;;;;;;;7.53;5.03;;;564.00;2432.00;;;;;;5017285;28;20124;-77
2021/08/05 11:41:55;;;;;;;8.23;5.28;;;564.10;2432.00;;;;;;5013149;28;20056;-78
2021/08/05 11:44:30;;;;;;;11.13;5.03;;;564.10;2432.00;;;;;;5014974;28;20101;-78
2021/08/05 11:47:05;;;;;;;7.45;5.03;;;564.10;2432.00;;;;;;5022799;28;20030;-77
2021/08/05 11:49:34;;;;;;;8.38;4.85;;;588.80;2432.00;;;;;;5012502;28;20481;-78
2021/08/05 11:52:07;;;;;;;9.07;5.15;;;564.10;2432.00;;;;;;5020175;28;20018;-78
2021/08/05 11:54:33;;;;;;;8.32;4.75;;;564.10;2432.00;;;;;;5011672;28;20040;-78
2021/08/05 11:57:11;;;;;;;5.90;4.15;;;563.90;2432.00;;;;;;5011796;28;20037;-78
2021/08/05 11:59:38;;;;;;;7.18;5.07;;;563.70;2432.00;;;;;;5015127;28;20108;-78
2021/08/05 12:02:05;;;;;;;6.55;4.18;;;563.80;2432.00;;;;;;5015385;28;20048;-77
2021/08/05 12:04:30;;;;;;;9.90;5.00;;;564.00;2432.00;;;;;;5013925;28;20050;-78
2021/08/05 12:07:18;;;;;;;7.32;4.40;;;564.10;2432.00;;;;;;5005697;28;20101;-77
2021/08/05 12:09:48;;;;;;;11.52;5.43;;;588.80;2432.00;;;;;;5021691;28;20038;-77
2021/08/05 12:12:14;;;;;;;11.85;5.03;;;589.00;2432.00;;;;;;5014902;28;20026;-76
2021/08/05 12:15:04;;;;;;;7.88;4.07;;;589.20;2432.00;;;;;;5013668;28;20075;-76
2021/08/05 12:17:46;;;;;;;9.57;4.38;;;589.40;2432.00;;;;;;5021572;28;20025;-76
2021/08/05 12:20:36;;;;;;;7.50;3.55;;;614.70;2432.00;;;;;;5014180;28;20021;-76